createdAt,value
2016-11-15T00:02:32.011Z,36.9
2016-11-15T00:07:36.098Z,36.9
2016-11-15T00:12:40.177Z,36.9
2016-11-15T00:17:44.259Z,36.9
2016-11-15T00:22:48.677Z,36.9
2016-11-15T00:27:52.764Z,36.9
2016-11-15T00:32:57.179Z,36.9
2016-11-15T00:38:01.255Z,36.9
2016-11-15T00:43:05.337Z,36.9
2016-11-15T00:48:09.426Z,36.8
2016-11-15T00:53:13.842Z,36.8
2016-11-15T00:58:17.922Z,36.8
2016-11-15T01:03:22.009Z,36.8
2016-11-15T01:08:26.418Z,36.8
2016-11-15T01:13:30.500Z,36.7
2016-11-15T01:18:34.923Z,36.8
2016-11-15T01:23:39.352Z,36.8
2016-11-15T01:28:43.771Z,36.8
2016-11-15T01:33:47.850Z,36.8
2016-11-15T01:38:51.935Z,36.8
2016-11-15T01:43:56.013Z,37
2016-11-15T01:49:00.095Z,37.8
2016-11-15T01:54:04.507Z,38
2016-11-15T01:59:08.920Z,38.3
2016-11-15T02:04:13.006Z,38.1
2016-11-15T02:09:17.083Z,37.9
2016-11-15T02:14:21.163Z,37.7
2016-11-15T02:19:26.253Z,37.5
2016-11-15T02:24:30.673Z,37.3
2016-11-15T02:29:35.097Z,37.1
2016-11-15T02:34:39.519Z,36.9
2016-11-15T02:39:44.612Z,36.7
2016-11-15T02:44:48.707Z,36.5
2016-11-15T02:49:52.785Z,36.3
2016-11-15T02:54:57.208Z,36.2
2016-11-15T03:00:01.290Z,36.1
2016-11-15T03:05:05.365Z,35.9
2016-11-15T03:10:09.785Z,35.7
2016-11-15T03:15:14.873Z,35.7
2016-11-15T03:20:18.964Z,35.6
2016-11-15T03:25:23.045Z,35.5
2016-11-15T03:30:27.475Z,35.3
2016-11-15T03:35:31.565Z,35.3
2016-11-15T03:40:35.644Z,35.1
2016-11-15T03:45:40.394Z,35
2016-11-15T03:50:44.475Z,34.9
2016-11-15T03:55:48.552Z,34.9
2016-11-15T04:00:52.965Z,34.7
2016-11-15T04:05:57.383Z,34.6
2016-11-15T04:11:01.807Z,34.6
2016-11-15T04:16:05.892Z,34.5
2016-11-15T04:21:10.308Z,34.5
2016-11-15T04:26:14.734Z,34.5
2016-11-15T04:31:19.154Z,34.4
2016-11-15T04:36:23.237Z,34.4
2016-11-15T04:41:27.323Z,34.4
2016-11-15T04:46:31.408Z,34.4
2016-11-15T04:51:35.828Z,34.4
2016-11-15T04:56:40.580Z,34.3
2016-11-15T05:01:44.682Z,34.2
2016-11-15T05:06:48.776Z,34.1
2016-11-15T05:11:52.863Z,34
2016-11-15T05:16:56.948Z,33.9
2016-11-15T05:22:01.042Z,33.8
2016-11-15T05:27:05.394Z,33.7
2016-11-15T05:32:10.151Z,33.6
2016-11-15T05:37:14.238Z,33.6
2016-11-15T05:42:19.047Z,33.6
2016-11-15T05:47:23.481Z,33.7
2016-11-15T05:52:27.899Z,34.4
2016-11-15T05:57:32.324Z,35
2016-11-15T06:02:36.750Z,35.7
2016-11-15T06:07:40.846Z,36.2
2016-11-15T06:12:45.283Z,36.6
2016-11-15T06:17:49.714Z,37.2
2016-11-15T06:22:53.824Z,38
2016-11-15T06:27:58.243Z,37.4
2016-11-15T06:33:02.332Z,37.5
2016-11-15T06:38:06.416Z,37.8
2016-11-15T06:43:10.497Z,37.7
2016-11-15T06:48:14.578Z,37.6
2016-11-15T06:53:18.662Z,37.4
2016-11-15T06:58:23.416Z,37.3
2016-11-15T07:03:27.836Z,37.2
2016-11-15T07:08:31.921Z,37.2
2016-11-15T07:13:36.345Z,37.1
2016-11-15T07:18:41.110Z,37.1
2016-11-15T07:23:45.194Z,37.1
2016-11-15T07:28:49.279Z,37
2016-11-15T07:33:53.368Z,37
2016-11-15T07:38:57.449Z,36.9
2016-11-15T07:44:01.533Z,36.8
2016-11-15T07:49:05.949Z,36.8
2016-11-15T07:54:10.041Z,36.8
2016-11-15T07:59:14.128Z,36.8
2016-11-15T08:04:18.553Z,36.7
2016-11-15T08:09:22.649Z,36.7
2016-11-15T08:14:27.068Z,36.7
2016-11-15T08:19:31.489Z,36.7
2016-11-15T08:24:35.907Z,36.7
2016-11-15T08:29:40.013Z,36.7
2016-11-15T08:34:44.440Z,36.7
2016-11-15T08:39:48.535Z,36.7
2016-11-15T08:44:52.623Z,36.7
2016-11-15T08:49:57.379Z,36.6
2016-11-15T08:55:01.463Z,36.6
2016-11-15T09:00:05.547Z,36.6
2016-11-15T09:05:09.641Z,36.6
2016-11-15T09:10:13.721Z,36.5
2016-11-15T09:15:17.808Z,36.5
2016-11-15T09:20:22.230Z,36.5
2016-11-15T09:25:26.317Z,36.5
2016-11-15T09:30:30.403Z,36.6
2016-11-15T09:35:34.493Z,36.6
2016-11-15T09:40:39.253Z,36.6
2016-11-15T09:45:43.338Z,36.6
2016-11-15T09:50:47.428Z,36.5
2016-11-15T09:55:51.518Z,36.5
2016-11-15T10:00:55.601Z,36.5
2016-11-15T10:06:00.031Z,36.5
2016-11-15T10:11:04.118Z,36.4
2016-11-15T10:16:08.549Z,36.4
2016-11-15T10:21:12.642Z,36.4
2016-11-15T10:26:16.723Z,36.4
2016-11-15T10:31:21.151Z,36.4
2016-11-15T10:36:25.574Z,36.4
2016-11-15T10:41:29.669Z,36.4
2016-11-15T10:46:33.763Z,36.4
2016-11-15T10:51:38.179Z,36.5
2016-11-15T10:56:42.276Z,36.5
2016-11-15T11:01:46.372Z,36.5
2016-11-15T11:06:50.804Z,36.5
2016-11-15T11:11:54.895Z,36.5
2016-11-15T11:16:59.320Z,36.5
2016-11-15T11:22:03.744Z,36.4
2016-11-15T11:27:08.424Z,36.5
2016-11-15T11:32:12.851Z,36.4
2016-11-15T11:37:17.276Z,36.4
2016-11-15T11:42:21.701Z,36.4
2016-11-15T11:47:26.125Z,36.4
2016-11-15T11:52:30.555Z,36.4
2016-11-15T11:57:34.637Z,36.5
2016-11-15T12:02:39.060Z,36.5
2016-11-15T12:07:43.817Z,36.5
2016-11-15T12:12:47.914Z,36.6
2016-11-15T12:17:52.337Z,36.6
2016-11-15T12:22:56.424Z,36.6
2016-11-15T12:28:00.511Z,36.6
2016-11-15T12:33:04.601Z,36.6
2016-11-15T12:38:09.362Z,36.6
2016-11-15T12:43:13.452Z,36.6
2016-11-15T12:48:17.541Z,36.7
2016-11-15T12:53:21.678Z,36.9
2016-11-15T12:58:25.806Z,37
2016-11-15T13:03:29.896Z,37.2
2016-11-15T13:08:34.662Z,37.2
2016-11-15T13:13:39.098Z,37.3
2016-11-15T13:18:43.305Z,37.4
2016-11-15T13:23:47.622Z,37.5
2016-11-15T13:28:51.762Z,37.6
2016-11-15T13:33:56.181Z,37.9
2016-11-15T13:39:00.948Z,38.3
2016-11-15T13:44:05.041Z,38.9
2016-11-15T13:49:09.801Z,39.1
2016-11-15T13:54:13.886Z,39
2016-11-15T13:59:18.641Z,39.1
2016-11-15T14:04:22.721Z,39
2016-11-15T14:09:26.802Z,39.1
2016-11-15T14:14:30.920Z,39.2
2016-11-15T14:19:35.011Z,39.2
2016-11-15T14:24:39.136Z,39.2
2016-11-15T14:29:43.557Z,39.2
2016-11-15T14:34:48.311Z,39.1
2016-11-15T14:39:52.465Z,39.1
2016-11-15T14:44:56.555Z,39.1
2016-11-15T14:50:00.970Z,39.1
2016-11-15T14:55:05.406Z,39.1
2016-11-15T15:00:10.233Z,39
2016-11-15T15:05:14.351Z,39
2016-11-15T15:10:18.495Z,39
2016-11-15T15:15:22.713Z,39
2016-11-15T15:20:27.176Z,39.1
2016-11-15T15:25:31.606Z,39.1
2016-11-15T15:30:36.041Z,39.1
2016-11-15T15:35:40.132Z,39.1
2016-11-15T15:40:44.218Z,39.2
2016-11-15T15:45:48.662Z,39.3
2016-11-15T15:50:53.085Z,39.3
2016-11-15T15:55:57.175Z,39.4
2016-11-15T16:01:01.604Z,39.5
2016-11-15T16:06:05.906Z,39.5
2016-11-15T16:11:09.986Z,39.6
2016-11-15T16:16:14.428Z,39.7
2016-11-15T16:21:19.242Z,39.8
2016-11-15T16:26:23.499Z,39.8
2016-11-15T16:31:27.605Z,39.8
2016-11-15T16:36:32.035Z,39.9
2016-11-15T16:41:36.456Z,39.8
2016-11-15T16:46:40.542Z,39.9
2016-11-15T16:51:44.823Z,40
2016-11-15T16:56:49.584Z,44
2016-11-15T17:01:54.184Z,45.4
2016-11-15T17:06:58.601Z,46.5
2016-11-15T17:12:02.687Z,44.8
2016-11-15T17:17:07.462Z,45.8
2016-11-15T17:22:11.553Z,44.5
2016-11-15T17:27:16.308Z,43.8
2016-11-15T17:32:20.415Z,43.8
2016-11-15T17:37:24.858Z,43.5
2016-11-15T17:42:28.963Z,43.2
2016-11-15T17:47:33.058Z,43.1
2016-11-15T17:52:37.492Z,43.2
2016-11-15T17:57:41.576Z,44.3
2016-11-15T18:02:45.879Z,44
2016-11-15T18:07:49.970Z,44.1
2016-11-15T18:12:54.100Z,43.6
2016-11-15T18:17:58.519Z,43
2016-11-15T18:23:02.953Z,43.6
2016-11-15T18:28:07.056Z,44.1
2016-11-15T18:33:11.230Z,44
2016-11-15T18:38:15.329Z,44.1
2016-11-15T18:43:19.752Z,43.6
2016-11-15T18:48:24.518Z,43.6
2016-11-15T18:53:28.944Z,43.6
2016-11-15T18:58:33.871Z,44.3
2016-11-15T19:03:38.296Z,44.4
2016-11-15T19:08:42.385Z,44.5
2016-11-15T19:13:46.487Z,44.5
2016-11-15T19:18:50.580Z,44.3
2016-11-15T19:23:54.665Z,44.2
2016-11-15T19:28:58.757Z,44.1
2016-11-15T19:34:02.843Z,43.9
2016-11-15T19:39:07.124Z,43.8
2016-11-15T19:44:11.559Z,43.6
2016-11-15T19:49:15.654Z,43.6
2016-11-15T19:54:20.062Z,43.5
2016-11-15T19:59:24.138Z,43.1
2016-11-15T20:04:28.226Z,42.9
2016-11-15T20:09:32.645Z,42.8
2016-11-15T20:14:38.021Z,42.9
2016-11-15T20:19:42.585Z,42.7
2016-11-15T20:24:46.678Z,42.7
2016-11-15T20:29:50.766Z,42.6
2016-11-15T20:34:54.853Z,42.6
2016-11-15T20:39:58.936Z,42.7
2016-11-15T20:45:03.352Z,42.6
2016-11-15T20:50:07.799Z,42.5
2016-11-15T20:55:12.215Z,42.6
2016-11-15T21:00:16.511Z,42.6
2016-11-15T21:05:21.259Z,42.5
2016-11-15T21:10:25.686Z,42.4
2016-11-15T21:15:29.765Z,42.5
2016-11-15T21:20:34.200Z,42.4
2016-11-15T21:25:38.635Z,42.4
2016-11-15T21:30:42.715Z,42.4
2016-11-15T21:35:46.802Z,42.4
2016-11-15T21:40:51.225Z,42.4
2016-11-15T21:45:55.670Z,42.4
2016-11-15T21:51:00.203Z,42.4
2016-11-15T21:56:04.642Z,42.4
2016-11-15T22:01:08.723Z,42.3
2016-11-15T22:06:12.805Z,42.2
2016-11-15T22:11:17.567Z,42.1
2016-11-15T22:16:21.992Z,42.1
2016-11-15T22:21:26.090Z,42
2016-11-15T22:26:30.186Z,41.9
2016-11-15T22:31:34.290Z,41.9
2016-11-15T22:36:39.058Z,41.9
2016-11-15T22:41:43.480Z,42.2
2016-11-15T22:46:47.915Z,42.4
2016-11-15T22:51:52.338Z,42.5
2016-11-15T22:56:56.767Z,42.4
2016-11-15T23:02:01.525Z,42.3
2016-11-15T23:07:05.608Z,42.1
2016-11-15T23:12:09.694Z,41.8
2016-11-15T23:17:14.118Z,41.5
2016-11-15T23:22:18.532Z,41.2
2016-11-15T23:27:22.637Z,40.9
2016-11-15T23:32:27.059Z,40.6
2016-11-15T23:37:31.146Z,40.4
2016-11-15T23:42:35.569Z,40.2
2016-11-15T23:47:39.650Z,40.2
2016-11-15T23:52:43.737Z,40.1
2016-11-15T23:57:48.494Z,40
